首页
METAR-TAF:

METAR-TAF

机场 :

喀土穆国际机场

喀土穆, 苏丹共和国

纬度: 15-36N, 经度: 032-33E, 海拔: 382米

当前天气观测

该预报发布于1小时和2分钟前的11:00 UTC
风速13节,风向南转西南
温度 33°C
湿度 44%
气压 1010 hPa
能见度10公里或以上
1500米以下无云,无积雨云

METAR: HSSS 131100Z 21013KT CAVOK 33/19 Q1010 NOSIG

时间: 14:02 (12:02 UTC)

预报

该预报发布于1小时和2分钟前的11:00 UTC
预报有效从13日的 12点(UTC)到 14日的 18点(UTC)
风速10节,风向,有时为20节阵风
能见度10公里或以上
少量云层高于4000英尺
散云层高于4000英尺

TAF: HSSS 131100Z 1312/1418 18010G20KT 9999 FEW040 SCT040

超过4000个机场的气象观测和天气预报(METAR&TAF报告)。

可查询的气象台以黄色和红色小点在地图上表示。

将鼠标移到小点上方,可查看气象台名称。

然后点击查看天气观测和预报。

如需切换地图:点击带黑十字的绿色按钮放大地图;点击带横线的绿色按钮缩小地图;或者点击绿色箭头查看邻近地区的地图。


METAR-TAF: